Time,TemperatureF,DewpointF,PressureIn,WindDirection,WindDirectionDegrees,WindSpeedMPH,WindSpeedGustMPH,Humidity,HourlyPrecipIn,Conditions,Clouds,dailyrainin,SoftwareType,DateUTC
2013-05-21 00:00:00,48.8,46.6,29.99,WSW,254,0.0,0.0,92,0.00,,,0.00,Wunderground v.1.15,2013-05-21 07:00:00,
2013-05-21 00:10:00,48.9,46.7,29.98,WSW,254,0.0,0.0,92,0.00,,,0.00,Wunderground v.1.15,2013-05-21 07:10:00,
2013-05-21 00:20:00,49.0,47.1,29.98,WSW,254,0.0,0.0,93,0.00,,,0.00,Wunderground v.1.15,2013-05-21 07:20:00,
2013-05-21 00:25:00,49.0,47.1,29.98,WSW,254,0.0,0.0,93,0.00,,,0.00,Wunderground v.1.15,2013-05-21 07:25:00,
2013-05-21 00:35:00,49.0,47.1,29.98,WSW,254,0.0,0.0,93,0.00,,,0.00,Wunderground v.1.15,2013-05-21 07:35:00,
2013-05-21 00:45:00,49.0,47.1,29.97,WSW,254,0.0,0.0,93,0.00,,,0.00,Wunderground v.1.15,2013-05-21 07:45:00,
2013-05-21 00:55:00,49.0,47.1,29.97,WSW,254,0.0,0.0,93,0.00,,,0.00,Wunderground v.1.15,2013-05-21 07:55:00,
2013-05-21 01:00:00,49.0,47.1,29.97,NNW,338,0.0,0.0,93,0.00,,,0.00,Wunderground v.1.15,2013-05-21 08:00:00,
2013-05-21 01:10:00,49.0,47.1,29.97,NNW,338,0.0,0.0,93,0.00,,,0.00,Wunderground v.1.15,2013-05-21 08:10:00,
2013-05-21 01:20:00,49.0,47.1,29.97,NNW,338,0.0,0.0,93,0.00,,,0.00,Wunderground v.1.15,2013-05-21 08:20:00,
2013-05-21 01:30:00,49.0,47.1,29.96,NNW,338,0.0,0.0,93,0.00,,,0.00,Wunderground v.1.15,2013-05-21 08:30:00,
2013-05-21 01:40:00,49.0,47.3,29.95,NNW,338,0.0,0.0,94,0.00,,,0.00,Wunderground v.1.15,2013-05-21 08:40:00,
2013-05-21 01:45:00,49.0,47.3,29.95,NNW,338,0.0,0.0,94,0.00,,,0.00,Wunderground v.1.15,2013-05-21 08:45:00,
2013-05-21 01:55:00,49.0,47.6,29.95,ENE,71,0.0,0.0,95,0.00,,,0.00,Wunderground v.1.15,2013-05-21 08:55:00,
2013-05-21 02:00:00,48.9,47.5,29.95,ENE,71,0.0,0.0,95,0.00,,,0.00,Wunderground v.1.15,2013-05-21 09:00:00,
2013-05-21 02:10:00,48.8,47.4,29.94,ENE,71,0.0,0.0,95,0.00,,,0.01,Wunderground v.1.15,2013-05-21 09:10:00,
2013-05-21 02:20:00,48.8,47.4,29.94,ENE,71,0.0,0.0,95,0.00,,,0.01,Wunderground v.1.15,2013-05-21 09:20:00,
2013-05-21 02:30:00,48.7,47.3,29.93,ENE,71,0.0,0.0,95,0.00,,,0.02,Wunderground v.1.15,2013-05-21 09:30:00,
2013-05-21 02:40:00,48.6,47.5,29.92,ENE,71,0.0,0.0,96,0.00,,,0.02,Wunderground v.1.15,2013-05-21 09:40:00,
2013-05-21 02:45:00,48.5,47.4,29.92,ENE,71,0.0,0.0,96,0.00,,,0.02,Wunderground v.1.15,2013-05-21 09:45:00,
2013-05-21 02:55:00,48.5,47.4,29.92,ENE,71,0.0,0.0,96,0.00,,,0.02,Wunderground v.1.15,2013-05-21 09:55:00,
2013-05-21 03:00:00,48.5,47.4,29.92,ENE,71,0.0,0.0,96,0.00,,,0.02,Wunderground v.1.15,2013-05-21 10:00:00,
2013-05-21 03:10:00,48.4,47.3,29.91,ENE,71,0.0,0.0,96,0.00,,,0.02,Wunderground v.1.15,2013-05-21 10:10:00,
2013-05-21 03:20:00,48.4,47.3,29.90,ENE,71,0.0,0.0,96,0.00,,,0.02,Wunderground v.1.15,2013-05-21 10:20:00,
2013-05-21 03:30:00,48.4,47.3,29.90,ENE,71,0.0,0.0,96,0.00,,,0.02,Wunderground v.1.15,2013-05-21 10:30:00,
2013-05-21 03:35:00,48.4,47.3,29.89,ENE,71,0.0,0.0,96,0.00,,,0.02,Wunderground v.1.15,2013-05-21 10:35:00,
2013-05-21 03:45:00,48.3,47.2,29.89,ENE,71,0.0,0.0,96,0.00,,,0.02,Wunderground v.1.15,2013-05-21 10:45:00,
2013-05-21 03:55:00,48.2,47.4,29.88,ENE,71,0.0,0.0,97,0.00,,,0.02,Wunderground v.1.15,2013-05-21 10:55:00,
2013-05-21 04:00:00,48.2,47.4,29.88,ENE,71,0.0,0.0,97,0.00,,,0.02,Wunderground v.1.15,2013-05-21 11:00:00,
2013-05-21 04:10:00,48.2,47.4,29.88,ENE,71,0.0,0.0,97,0.00,,,0.02,Wunderground v.1.15,2013-05-21 11:10:00,
2013-05-21 04:20:00,48.2,47.4,29.88,ENE,71,0.0,0.0,97,0.00,,,0.02,Wunderground v.1.15,2013-05-21 11:20:00,
2013-05-21 04:30:00,48.2,47.4,29.87,ENE,71,0.0,0.0,97,0.00,,,0.02,Wunderground v.1.15,2013-05-21 11:30:00,
2013-05-21 04:40:00,48.2,47.4,29.87,ENE,71,0.0,0.0,97,0.00,,,0.02,Wunderground v.1.15,2013-05-21 11:40:00,
2013-05-21 04:45:00,48.2,47.4,29.87,ENE,71,0.0,0.0,97,0.00,,,0.02,Wunderground v.1.15,2013-05-21 11:45:00,
2013-05-21 04:55:00,48.1,47.3,29.87,ENE,71,0.0,0.0,97,0.00,,,0.02,Wunderground v.1.15,2013-05-21 11:55:00,
2013-05-21 05:00:00,48.2,47.4,29.88,ENE,71,0.0,0.0,97,0.00,,,0.02,Wunderground v.1.15,2013-05-21 12:00:00,
2013-05-21 05:10:00,48.2,47.4,29.86,ENE,71,0.0,0.0,97,0.00,,,0.02,Wunderground v.1.15,2013-05-21 12:10:00,
2013-05-21 05:15:00,48.2,47.4,29.87,ENE,71,0.0,0.0,97,0.00,,,0.02,Wunderground v.1.15,2013-05-21 12:15:00,
2013-05-21 05:25:00,48.1,47.3,29.86,ENE,71,0.0,0.0,97,0.00,,,0.02,Wunderground v.1.15,2013-05-21 12:25:00,
2013-05-21 05:35:00,48.1,47.3,29.86,ENE,71,0.0,0.0,97,0.00,,,0.02,Wunderground v.1.15,2013-05-21 12:35:00,
2013-05-21 05:45:00,48.1,47.3,29.86,ENE,71,0.0,0.0,97,0.00,,,0.02,Wunderground v.1.15,2013-05-21 12:45:00,
2013-05-21 05:55:00,48.1,47.3,29.85,ENE,77,0.0,0.0,97,0.00,,,0.02,Wunderground v.1.15,2013-05-21 12:55:00,
2013-05-21 06:00:00,48.0,47.2,29.86,ENE,77,0.0,0.0,97,0.00,,,0.02,Wunderground v.1.15,2013-05-21 13:00:00,
2013-05-21 06:10:00,47.9,47.1,29.85,WNW,296,0.0,0.0,97,0.00,,,0.02,Wunderground v.1.15,2013-05-21 13:10:00,
2013-05-21 06:20:00,48.0,47.5,29.85,WNW,297,0.0,0.0,98,0.00,,,0.02,Wunderground v.1.15,2013-05-21 13:20:00,
2013-05-21 06:30:00,48.1,47.6,29.86,WNW,296,0.0,0.0,98,0.00,,,0.02,Wunderground v.1.15,2013-05-21 13:30:00,
2013-05-21 06:35:00,48.2,47.7,29.85,WNW,296,0.0,0.0,98,0.00,,,0.02,Wunderground v.1.15,2013-05-21 13:35:00,
2013-05-21 06:45:00,48.2,47.4,29.85,WSW,250,0.0,0.0,97,0.00,,,0.03,Wunderground v.1.15,2013-05-21 13:45:00,
2013-05-21 06:55:00,48.4,47.6,29.86,SE,146,0.0,0.0,97,0.00,,,0.03,Wunderground v.1.15,2013-05-21 13:55:00,
2013-05-21 07:00:00,48.6,47.8,29.85,SE,146,0.0,0.0,97,0.00,,,0.04,Wunderground v.1.15,2013-05-21 14:00:00,
2013-05-21 07:10:00,48.6,47.8,29.86,SE,146,0.0,0.0,97,0.00,,,0.04,Wunderground v.1.15,2013-05-21 14:10:00,
2013-05-21 07:20:00,48.6,47.8,29.86,SE,146,0.0,0.0,97,0.00,,,0.05,Wunderground v.1.15,2013-05-21 14:20:00,
2013-05-21 07:30:00,48.8,48.3,29.86,SE,146,0.0,0.0,98,0.00,,,0.05,Wunderground v.1.15,2013-05-21 14:30:00,
2013-05-21 07:40:00,49.0,48.5,29.86,SE,146,0.0,0.0,98,0.00,,,0.05,Wunderground v.1.15,2013-05-21 14:40:00,
2013-05-21 07:45:00,49.2,48.7,29.86,SE,146,0.0,0.0,98,0.00,,,0.05,Wunderground v.1.15,2013-05-21 14:45:00,
2013-05-21 07:55:00,49.4,48.9,29.86,SE,146,0.0,0.0,98,0.00,,,0.05,Wunderground v.1.15,2013-05-21 14:55:00,
2013-05-21 08:00:00,49.5,48.7,29.85,SE,146,0.0,0.0,97,0.00,,,0.05,Wunderground v.1.15,2013-05-21 15:00:00,
2013-05-21 08:10:00,49.4,48.6,29.85,NW,309,0.0,0.0,97,0.00,,,0.05,Wunderground v.1.15,2013-05-21 15:10:00,
2013-05-21 08:20:00,49.4,48.6,29.86,NW,309,0.0,0.0,97,0.00,,,0.05,Wunderground v.1.15,2013-05-21 15:20:00,
2013-05-21 08:30:00,49.8,49.0,29.86,NW,307,0.0,0.0,97,0.00,,,0.05,Wunderground v.1.15,2013-05-21 15:30:00,
2013-05-21 08:40:00,50.1,49.0,29.85,NW,307,0.0,0.0,96,0.00,,,0.05,Wunderground v.1.15,2013-05-21 15:40:00,
2013-05-21 08:50:00,50.6,49.2,29.86,NW,307,0.0,0.0,95,0.00,,,0.05,Wunderground v.1.15,2013-05-21 15:50:00,
2013-05-21 09:00:00,51.2,50.1,29.86,ESE,113,0.0,0.0,96,0.00,,,0.05,Wunderground v.1.15,2013-05-21 16:00:00,
2013-05-21 09:10:00,51.8,50.7,29.86,NE,44,1.0,3.0,96,0.00,,,0.05,Wunderground v.1.15,2013-05-21 16:10:00,
2013-05-21 09:20:00,52.6,50.9,29.86,ENE,71,2.0,5.0,94,0.00,,,0.05,Wunderground v.1.15,2013-05-21 16:20:00,
2013-05-21 09:30:00,52.8,50.5,29.87,NNE,26,2.0,2.0,92,0.00,,,0.05,Wunderground v.1.15,2013-05-21 16:30:00,
2013-05-21 09:40:00,52.8,50.5,29.87,ESE,108,1.0,1.0,92,0.00,,,0.05,Wunderground v.1.15,2013-05-21 16:40:00,
2013-05-21 09:45:00,53.0,51.0,29.87,NNE,29,2.0,2.0,93,0.00,,,0.05,Wunderground v.1.15,2013-05-21 16:45:00,
2013-05-21 09:55:00,53.9,52.2,29.87,East,90,2.0,2.0,94,0.00,,,0.05,Wunderground v.1.15,2013-05-21 16:55:00,
2013-05-21 10:00:00,53.9,51.9,29.87,NE,46,2.0,2.0,93,0.00,,,0.05,Wunderground v.1.15,2013-05-21 17:00:00,
2013-05-21 10:10:00,52.9,49.7,29.88,SW,216,3.0,9.0,89,0.19,,,0.07,Wunderground v.1.15,2013-05-21 17:10:00,
2013-05-21 10:20:00,52.0,49.5,29.89,SW,221,5.0,5.0,91,0.05,,,0.07,Wunderground v.1.15,2013-05-21 17:20:00,
2013-05-21 10:30:00,51.6,48.2,29.90,NW,308,4.0,4.0,88,0.00,,,0.07,Wunderground v.1.15,2013-05-21 17:30:00,
2013-05-21 10:40:00,50.7,48.2,29.91,NNW,346,6.0,6.0,91,0.00,,,0.07,Wunderground v.1.15,2013-05-21 17:40:00,
2013-05-21 10:45:00,50.1,47.6,29.92,NNW,335,7.0,7.0,91,0.00,,,0.07,Wunderground v.1.15,2013-05-21 17:45:00,
2013-05-21 10:55:00,49.0,47.1,29.93,WNW,296,6.0,11.0,93,0.07,,,0.09,Wunderground v.1.15,2013-05-21 17:55:00,
2013-05-21 11:00:00,48.5,46.9,29.93,WNW,295,8.0,8.0,94,0.07,,,0.09,Wunderground v.1.15,2013-05-21 18:00:00,
2013-05-21 11:10:00,47.6,46.0,29.95,WSW,242,7.0,7.0,94,0.07,,,0.10,Wunderground v.1.15,2013-05-21 18:10:00,
2013-05-21 11:20:00,47.1,45.5,29.97,NW,317,5.0,5.0,94,0.18,,,0.13,Wunderground v.1.15,2013-05-21 18:20:00,
2013-05-21 11:30:00,46.7,45.1,29.98,WSW,244,7.0,7.0,94,0.11,,,0.14,Wunderground v.1.15,2013-05-21 18:30:00,
2013-05-21 11:35:00,46.7,45.1,29.98,SW,221,6.0,7.0,94,0.06,,,0.14,Wunderground v.1.15,2013-05-21 18:35:00,
2013-05-21 11:45:00,46.7,45.3,30.00,WNW,294,4.0,7.0,95,0.22,,,0.16,Wunderground v.1.15,2013-05-21 18:45:00,
2013-05-21 11:55:00,46.5,44.9,30.01,SW,230,6.0,10.0,94,0.14,,,0.18,Wunderground v.1.15,2013-05-21 18:55:00,
2013-05-21 12:00:00,46.4,44.8,30.01,ESE,107,5.0,5.0,94,0.22,,,0.20,Wunderground v.1.15,2013-05-21 19:00:00,
2013-05-21 12:10:00,46.3,44.9,30.01,NNE,20,4.0,4.0,95,0.18,,,0.23,Wunderground v.1.15,2013-05-21 19:10:00,
2013-05-21 12:20:00,46.4,45.3,30.02,WSW,251,3.0,3.0,96,0.22,,,0.26,Wunderground v.1.15,2013-05-21 19:20:00,
2013-05-21 12:30:00,46.4,44.8,30.03,NE,41,2.0,3.0,94,0.14,,,0.28,Wunderground v.1.15,2013-05-21 19:30:00,
2013-05-21 12:40:00,46.4,44.8,30.03,WSW,253,3.0,3.0,94,0.38,,,0.32,Wunderground v.1.15,2013-05-21 19:40:00,
2013-05-21 12:45:00,46.3,44.7,30.03,SSE,165,2.0,3.0,94,0.15,,,0.33,Wunderground v.1.15,2013-05-21 19:45:00,
2013-05-21 12:55:00,46.6,45.0,30.04,WNW,301,1.0,3.0,94,0.08,,,0.34,Wunderground v.1.15,2013-05-21 19:55:00,
2013-05-21 13:00:00,46.8,45.2,30.04,WNW,301,0.0,0.0,94,0.06,,,0.34,Wunderground v.1.15,2013-05-21 20:00:00,
2013-05-21 13:10:00,47.3,45.9,30.03,WNW,303,0.0,2.0,95,0.00,,,0.34,Wunderground v.1.15,2013-05-21 20:10:00,
2013-05-21 13:20:00,48.0,46.4,30.04,SW,224,0.0,1.0,94,0.00,,,0.34,Wunderground v.1.15,2013-05-21 20:20:00,
2013-05-21 13:30:00,49.1,47.7,30.04,SSW,196,1.0,1.0,95,0.00,,,0.35,Wunderground v.1.15,2013-05-21 20:30:00,
2013-05-21 13:40:00,48.1,45.6,30.05,NNE,13,2.0,3.0,91,0.19,,,0.40,Wunderground v.1.15,2013-05-21 20:40:00,
2013-05-21 13:45:00,47.8,45.6,30.05,NW,317,2.0,3.0,92,0.09,,,0.40,Wunderground v.1.15,2013-05-21 20:45:00,
2013-05-21 13:55:00,48.3,45.8,30.05,SW,231,1.0,4.0,91,0.04,,,0.40,Wunderground v.1.15,2013-05-21 20:55:00,
2013-05-21 14:00:00,48.9,46.1,30.04,WNW,302,2.0,2.0,90,0.00,,,0.40,Wunderground v.1.15,2013-05-21 21:00:00,
2013-05-21 14:10:00,49.0,45.9,30.05,WNW,297,4.0,6.0,89,0.53,,,0.41,Wunderground v.1.15,2013-05-21 21:10:00,
2013-05-21 14:20:00,47.4,45.2,30.06,NNW,339,3.0,3.0,92,0.13,,,0.44,Wunderground v.1.15,2013-05-21 21:20:00,
2013-05-21 14:30:00,47.8,46.2,30.06,WSW,251,1.0,1.0,94,0.07,,,0.45,Wunderground v.1.15,2013-05-21 21:30:00,
2013-05-21 14:40:00,48.8,46.6,30.06,NNE,26,1.0,1.0,92,0.00,,,0.45,Wunderground v.1.15,2013-05-21 21:40:00,
2013-05-21 14:50:00,48.7,46.2,30.06,SW,222,2.0,3.0,91,0.00,,,0.46,Wunderground v.1.15,2013-05-21 21:50:00,
2013-05-21 15:00:00,49.0,46.8,30.07,ENE,57,2.0,2.0,92,0.00,,,0.46,Wunderground v.1.15,2013-05-21 22:00:00,
2013-05-21 15:10:00,49.2,45.2,30.06,South,171,2.0,3.0,86,0.00,,,0.46,Wunderground v.1.15,2013-05-21 22:10:00,
2013-05-21 15:20:00,48.9,44.9,30.07,SW,235,2.0,8.0,86,0.00,,,0.46,Wunderground v.1.15,2013-05-21 22:20:00,
2013-05-21 15:30:00,46.9,43.8,30.08,SW,221,3.0,3.0,89,0.13,,,0.58,Wunderground v.1.15,2013-05-21 22:30:00,
2013-05-21 15:40:00,46.3,44.4,30.07,ESE,102,3.0,3.0,93,0.08,,,0.59,Wunderground v.1.15,2013-05-21 22:40:00,
2013-05-21 15:50:00,46.6,45.0,30.07,ENE,72,1.0,1.0,94,0.05,,,0.60,Wunderground v.1.15,2013-05-21 22:50:00,
2013-05-21 16:00:00,47.3,45.4,30.08,SW,214,1.0,1.0,93,0.04,,,0.60,Wunderground v.1.15,2013-05-21 23:00:00,
2013-05-21 16:10:00,48.6,46.4,30.08,SW,218,1.0,1.0,92,0.00,,,0.60,Wunderground v.1.15,2013-05-21 23:10:00,
2013-05-21 16:20:00,50.1,46.7,30.08,North,5,2.0,2.0,88,0.00,,,0.60,Wunderground v.1.15,2013-05-21 23:20:00,
2013-05-21 16:30:00,50.4,45.4,30.08,West,259,2.0,2.0,83,0.00,,,0.60,Wunderground v.1.15,2013-05-21 23:30:00,
2013-05-21 16:40:00,50.4,45.7,30.08,East,94,3.0,3.0,84,0.00,,,0.60,Wunderground v.1.15,2013-05-21 23:40:00,
2013-05-21 16:50:00,50.1,45.1,30.08,SW,227,4.0,4.0,83,0.00,,,0.60,Wunderground v.1.15,2013-05-21 23:50:00,
2013-05-21 17:00:00,50.4,44.8,30.08,NNW,335,3.0,7.0,81,0.00,,,0.60,Wunderground v.1.15,2013-05-22 00:00:00,
2013-05-21 17:05:00,50.4,45.4,30.08,WNW,294,3.0,7.0,83,0.00,,,0.60,Wunderground v.1.15,2013-05-22 00:05:00,
2013-05-21 17:15:00,49.9,43.6,30.08,NNE,13,4.0,4.0,79,0.00,,,0.60,Wunderground v.1.15,2013-05-22 00:15:00,
2013-05-21 17:25:00,49.9,44.3,30.08,NE,37,5.0,9.0,81,0.00,,,0.60,Wunderground v.1.15,2013-05-22 00:25:00,
2013-05-21 17:35:00,49.6,44.6,30.08,NE,46,3.0,4.0,83,0.00,,,0.60,Wunderground v.1.15,2013-05-22 00:35:00,
2013-05-21 17:40:00,49.7,44.7,30.09,West,278,2.0,2.0,83,0.00,,,0.60,Wunderground v.1.15,2013-05-22 00:40:00,
2013-05-21 17:50:00,49.7,43.8,30.08,ESE,113,1.0,1.0,80,0.00,,,0.60,Wunderground v.1.15,2013-05-22 00:50:00,
2013-05-21 18:00:00,49.2,40.9,30.08,SW,225,3.0,3.0,73,0.00,,,0.60,Wunderground v.1.15,2013-05-22 01:00:00,
2013-05-21 18:10:00,49.5,41.2,30.08,WNW,284,3.0,3.0,73,0.00,,,0.60,Wunderground v.1.15,2013-05-22 01:10:00,
2013-05-21 18:20:00,49.5,40.1,30.08,NW,307,3.0,4.0,70,0.00,,,0.60,Wunderground v.1.15,2013-05-22 01:20:00,
2013-05-21 18:31:00,49.3,44.0,30.08,NW,315,3.0,3.0,82,0.00,,,0.60,Wunderground v.1.15,2013-05-22 01:31:00,
2013-05-21 18:40:00,48.8,42.9,30.08,NNW,339,1.0,3.0,80,0.00,,,0.60,Wunderground v.1.15,2013-05-22 01:40:00,
2013-05-21 18:50:00,48.9,41.3,30.08,West,275,1.0,2.0,75,0.00,,,0.60,Wunderground v.1.15,2013-05-22 01:50:00,
2013-05-21 19:00:00,49.0,41.4,30.08,WSW,240,3.0,4.0,75,0.00,,,0.60,Wunderground v.1.15,2013-05-22 02:00:00,
2013-05-21 19:10:00,49.7,42.4,30.08,NE,42,2.0,3.0,76,0.00,,,0.60,Wunderground v.1.15,2013-05-22 02:10:00,
2013-05-21 19:20:00,49.4,41.8,30.08,SSW,207,2.0,2.0,75,0.00,,,0.60,Wunderground v.1.15,2013-05-22 02:20:00,
2013-05-21 19:30:00,48.9,42.3,30.08,WSW,251,2.0,2.0,78,0.00,,,0.60,Wunderground v.1.15,2013-05-22 02:30:00,
2013-05-21 19:40:00,48.1,40.5,30.08,SSE,154,1.0,1.0,75,0.00,,,0.60,Wunderground v.1.15,2013-05-22 02:40:00,
2013-05-21 19:45:00,48.1,42.2,30.08,SSE,149,1.0,1.0,80,0.00,,,0.60,Wunderground v.1.15,2013-05-22 02:45:00,
2013-05-21 19:55:00,47.5,42.0,30.08,SSE,161,1.0,2.0,81,0.00,,,0.60,Wunderground v.1.15,2013-05-22 02:55:00,
2013-05-21 20:00:00,47.3,43.0,30.08,SE,138,1.0,1.0,85,0.00,,,0.60,Wunderground v.1.15,2013-05-22 03:00:00,
2013-05-21 20:10:00,46.8,43.4,30.08,SSW,192,0.0,0.0,88,0.00,,,0.60,Wunderground v.1.15,2013-05-22 03:10:00,
2013-05-21 20:20:00,46.3,42.3,30.09,ENE,71,1.0,1.0,86,0.00,,,0.60,Wunderground v.1.15,2013-05-22 03:20:00,
2013-05-21 20:30:00,45.8,41.9,30.09,SSE,150,0.0,2.0,86,0.00,,,0.60,Wunderground v.1.15,2013-05-22 03:30:00,
2013-05-21 20:40:00,45.6,41.0,30.09,SW,226,1.0,1.0,84,0.00,,,0.60,Wunderground v.1.15,2013-05-22 03:40:00,
2013-05-21 20:50:00,46.1,40.3,30.09,NNE,20,2.0,2.0,80,0.00,,,0.60,Wunderground v.1.15,2013-05-22 03:50:00,
2013-05-21 20:55:00,46.1,40.9,30.09,WSW,250,1.0,3.0,82,0.00,,,0.60,Wunderground v.1.15,2013-05-22 03:55:00,
2013-05-21 21:05:00,45.5,39.7,30.09,WNW,288,2.0,2.0,80,0.00,,,0.60,Wunderground v.1.15,2013-05-22 04:05:00,
2013-05-21 21:10:00,45.6,41.0,30.09,NW,304,2.0,2.0,84,0.00,,,0.60,Wunderground v.1.15,2013-05-22 04:10:00,
2013-05-21 21:15:00,45.2,40.7,30.09,ENE,74,1.0,2.0,84,0.00,,,0.60,Wunderground v.1.15,2013-05-22 04:15:00,
2013-05-21 21:20:00,44.9,40.7,30.09,ESE,121,1.0,1.0,85,0.00,,,0.60,Wunderground v.1.15,2013-05-22 04:20:00,
2013-05-21 21:30:00,44.1,40.8,30.09,SE,142,0.0,0.0,88,0.00,,,0.60,Wunderground v.1.15,2013-05-22 04:30:00,
2013-05-21 21:40:00,43.5,40.2,30.10,SSE,148,1.0,3.0,88,0.00,,,0.60,Wunderground v.1.15,2013-05-22 04:40:00,
2013-05-21 21:50:00,44.1,39.9,30.10,NW,319,3.0,3.0,85,0.00,,,0.60,Wunderground v.1.15,2013-05-22 04:50:00,
2013-05-21 22:00:00,44.0,38.9,30.09,WSW,254,2.0,2.0,82,0.00,,,0.60,Wunderground v.1.15,2013-05-22 05:00:00,
2013-05-21 22:10:00,43.3,40.0,30.09,South,177,1.0,1.0,88,0.00,,,0.60,Wunderground v.1.15,2013-05-22 05:10:00,
2013-05-21 22:15:00,42.8,40.1,30.09,South,177,0.0,1.0,90,0.00,,,0.60,Wunderground v.1.15,2013-05-22 05:15:00,
2013-05-21 22:20:00,42.3,39.9,30.09,South,177,0.0,0.0,91,0.00,,,0.60,Wunderground v.1.15,2013-05-22 05:20:00,
2013-05-21 22:30:00,41.6,39.4,30.09,South,177,0.0,0.0,92,0.00,,,0.60,Wunderground v.1.15,2013-05-22 05:30:00,
2013-05-21 22:40:00,41.1,39.2,30.09,South,177,0.0,0.0,93,0.00,,,0.60,Wunderground v.1.15,2013-05-22 05:40:00,
2013-05-21 22:50:00,41.0,39.4,30.09,South,178,0.0,0.0,94,0.00,,,0.60,Wunderground v.1.15,2013-05-22 05:50:00,
2013-05-21 23:00:00,41.1,39.5,30.09,SE,134,1.0,1.0,94,0.00,,,0.60,Wunderground v.1.15,2013-05-22 06:00:00,
2013-05-21 23:10:00,41.3,40.0,30.09,ENE,59,0.0,0.0,95,0.00,,,0.61,Wunderground v.1.15,2013-05-22 06:10:00,
2013-05-21 23:20:00,41.8,40.2,30.09,SW,224,0.0,0.0,94,0.00,,,0.61,Wunderground v.1.15,2013-05-22 06:20:00,
2013-05-21 23:30:00,41.3,39.7,30.09,SW,224,0.0,0.0,94,0.00,,,0.61,Wunderground v.1.15,2013-05-22 06:30:00,
2013-05-21 23:40:00,41.0,39.7,30.09,SW,224,0.0,0.0,95,0.00,,,0.61,Wunderground v.1.15,2013-05-22 06:40:00,
2013-05-21 23:45:00,40.9,39.6,30.09,SW,224,0.0,0.0,95,0.00,,,0.61,Wunderground v.1.15,2013-05-22 06:45:00,
2013-05-21 23:55:00,40.8,39.5,30.08,SSE,153,0.0,0.0,95,0.00,,,0.61,Wunderground v.1.15,2013-05-22 06:55:00,